x

North Nomad (46184) Wave Buoy

3:00pm - Sun 28th Aug 2016 All times are AKDT. -8 hours from GMT.

  • Sig Wave height 4.9ft
  • Peak Period 14s
  • Wind
    7mph, 9mph gusts
  • Sea Temp 60°f
  • Air Temp 59°f
  • Sea Pressure 1005.4mb
  • North Nomad
  • North Nomad

More Historic Weather Station data

Upgrade to MSW Pro to gain access to the past 30 days of data for over 8000 Wavebouys and Weather Stations around the globe.

Join Pro

Comparision Forecast

View Surf forecast
   
Sun 08/28 3:00pm 5ft 14s 7 9 mph 1005.4mb 60f 59f
2:00pm 4.5ft 8s 9 11 mph 1005.6mb 60f 59f
1:00pm 5.5ft 7s 9 11 mph 1005.8mb 60f 58f
12:00pm 5ft 7s 4 7 mph 1006.2mb 60f 57f
11:00am 5ft 8s 7 9 mph 1006.5mb 60f 58f
10:00am 5ft 8s 4 7 mph 1006.7mb 60f 58f
9:00am 5ft 8s 7 9 mph 1006.7mb 60f 58f
8:00am 5ft 8s 2 4 mph 1007.1mb 60f 58f
7:00am 5ft 8s 4
mph
1007.4mb 60f 58f
6:00am 5ft 8s 4 7 mph 1007.5mb 60f 58f
5:00am 5ft 8s 7 9 mph 1007.7mb 60f 58f
4:00am 5ft 8s 7 9 mph 1008.1mb 60f 58f
3:00am 5ft 8s 9
mph
1008.5mb 60f 58f
2:00am 4.5ft 8s 9 11 mph 1008.6mb 60f 59f
1:00am 4.5ft 8s 9 11 mph 1008.8mb 60f 58f
12:00am 5ft 7s 9 11 mph 1009.1mb 60f 59f
Sat 08/27 11:00pm 4.5ft 7s 9 11 mph 1009.2mb 60f 58f
10:00pm 4.5ft 7s 11 13 mph 1009.4mb 60f 58f
9:00pm 4.5ft 7s 9 11 mph 1009.7mb 60f 59f
8:00pm 4.5ft 7s 9 11 mph 1009.3mb 60f 59f
7:00pm 4.5ft 7s 11 13 mph 1009.2mb 60f 59f
6:00pm 4ft 6s 11 13 mph 1009.3mb 60f 60f
5:00pm 4ft 7s 11 13 mph 1009.6mb 60f 60f
4:00pm 4ft 7s 11 13 mph 1009.6mb 60f 60f
3:00pm 4ft 7s 11 13 mph 1009.9mb 60f 59f
2:00pm 4ft 7s 11 13 mph 1010.2mb 60f 59f
1:00pm 4.5ft 7s 9 11 mph 1010.3mb 60f 59f
12:00pm 5ft 7s 7 9 mph 1010.7mb 60f 59f
11:00am 5ft 7s 9
mph
1010.8mb 60f 59f
10:00am 5ft 7s 7 9 mph 1011.4mb 60f 59f
9:00am 5ft 7s 4 7 mph 1012mb 60f 59f
8:00am 5ft 7s 2 4 mph 1013mb 60f 59f
7:00am 6ft 7s 2 4 mph 1014.1mb 60f 59f
6:00am 6ft 7s  -  4 mph 1014.6mb 60f 59f
5:00am 5.5ft 7s 11 13 mph 1015.5mb 60f 59f
4:00am 5ft 7s 11 13 mph 1016.8mb 60f 59f
3:00am 5ft 7s 9 13 mph 1017.4mb 60f 59f
2:00am 6ft 7s 13 18 mph 1018.4mb 60f 59f
1:00am 5.5ft 8s 13 16 mph 1019mb 60f 59f
12:00am 6ft 7s 13 18 mph 1019.1mb 60f 59f
Fri 08/26 11:00pm 6ft 7s 16 20 mph 1019.6mb 60f 59f
10:00pm 6ft 8s 16 20 mph 1019.8mb 60f 59f
9:00pm 7ft 8s 18 20 mph 1020mb 60f 59f
8:00pm 6.5ft 8s 18 22 mph 1020mb 60f 59f
7:00pm 6.5ft 7s 16 18 mph 1020.4mb 60f 59f
6:00pm 7ft 8s 18 20 mph 1020.9mb 60f 59f
5:00pm 7ft 7s 18 22 mph 1021.2mb 60f 59f
4:00pm 7ft 7s 20 22 mph 1021.5mb 60f 59f
3:00pm 7ft 7s 22 27 mph 1021.8mb 60f 59f
2:00pm 7ft 7s 22 27 mph 1022mb 60f 59f
1:00pm 7.5ft 7s 20 27 mph 1022mb 60f 59f
12:00pm 8ft 7s 22 27 mph 1022.5mb 60f 59f
11:00am 8ft 7s 22 27 mph 1022.9mb 60f 59f
10:00am 8ft 7s 25 29 mph 1023mb 60f 59f
9:00am 7ft 6s 25 31 mph 1023.3mb 60f 59f
8:00am 7ft 6s 25 31 mph 1023.7mb 60f 59f
7:00am 6ft 6s 25 29 mph 1024.5mb 60f 59f
6:00am 6ft 6s 22 29 mph 1024.8mb 60f 59f
5:00am 6ft 6s 25 29 mph 1025.4mb 60f 59f
4:00am 5ft 5s 22 29 mph 1026mb 60f 59f
3:00am 5ft 5s 22 27 mph 1026.8mb 60f 59f
2:00am 4.5ft  -  22 25 mph 1027.5mb 60f 59f
1:00am 4.5ft 5s 18 22 mph 1028mb 60f 60f
12:00am 4.5ft 7s 16 20 mph 1028.7mb 60f 60f
Thu 08/25 11:00pm 4ft 5s 16 20 mph 1029.3mb 60f 60f
10:00pm 4ft 7s 13 18 mph 1029.8mb 60f 60f
9:00pm 4ft 8s 16 20 mph 1030.3mb 60f 60f
8:00pm 4ft 7s 18 20 mph 1031mb 60f 60f
7:00pm 4ft 14s 16 18 mph 1031.5mb 60f 60f
6:00pm 4ft 8s 11 16 mph 1032.3mb 60f 60f
5:00pm 3.5ft 8s 16 18 mph 1033.1mb 60f 60f
4:00pm 4ft 8s 13 16 mph 1033.7mb 60f 60f
3:00pm 4ft 8s 13 16 mph 1034.3mb 60f 59f
2:00pm  -   -  16
mph
- - -
1:00pm 4.5ft 8s 13 16 mph 1035.1mb 60f 58f
12:00pm 4ft 8s 13 16 mph 1035.7mb 60f 58f
11:00am 4ft 8s 13 16 mph 1035.9mb 60f 58f
10:00am 4.5ft 14s 11 13 mph 1036.1mb 60f 58f
9:00am 4ft 8s 11 13 mph 1036.3mb 60f 57f
8:00am 4ft 14s 13 16 mph 1036.5mb 60f 57f
7:00am 4.5ft 8s 11 13 mph 1036.7mb 60f 57f
6:00am 4.5ft 8s 13
mph
1036.9mb 60f 57f
5:00am 4ft 8s 13 18 mph 1037mb 60f 57f
4:00am 4ft 8s 13 16 mph 1037mb 60f 57f
3:00am 4.5ft 8s 13 16 mph 1037.2mb 60f 56f
2:00am 4.5ft 8s 11 13 mph 1037.4mb 60f 57f
1:00am 4.5ft 8s 13 16 mph 1037.8mb 60f 57f